Time;durP1;ratioP1;P1;durP2;ratioP2;P2;SDS_P1;SDS_P2;PMS_P1;PMS_P2;Temp;Humidity;BMP_temperature;BMP_pressure;BME280_temperature;BME280_humidity;BME280_pressure;Samples;Min_cycle;Max_cycle;Signal;HPM_P1;HPM_P2
2022/03/21 00:00:46;;;;;;;20.37;9.20;;;;;;;-0.84;100.00;60722.06;5092251;28;20438;-72
2022/03/21 00:03:16;;;;;;;18.90;8.93;;;;;;;-0.58;100.00;60754.59;5092620;28;20466;-72
2022/03/21 00:05:45;;;;;;;22.43;9.03;;;;;;;-0.70;100.00;60731.88;5092224;28;20806;-71
2022/03/21 00:08:13;;;;;;;16.77;9.40;;;;;;;-0.69;100.00;60737.94;5091833;28;20434;-72
2022/03/21 00:10:40;;;;;;;19.20;10.13;;;;;;;-0.78;100.00;60728.41;5091927;28;20498;-72
2022/03/21 00:13:08;;;;;;;19.73;9.40;;;;;;;-0.61;100.00;60743.91;5091929;28;20513;-72
2022/03/21 00:15:35;;;;;;;15.77;9.47;;;;;;;-0.70;100.00;60731.88;5091953;28;20438;-71
2022/03/21 00:18:03;;;;;;;19.13;9.10;;;;;;;-1.58;100.00;60639.81;5091783;28;20445;-71
2022/03/21 00:20:33;;;;;;;17.67;8.53;;;;;;;-0.92;100.00;60714.66;5092593;28;20889;-71
2022/03/21 00:23:01;;;;;;;16.40;8.53;;;;;;;-0.65;100.00;60739.66;5092730;28;20430;-71
2022/03/21 00:25:29;;;;;;;23.10;10.10;;;;;;;-1.51;100.00;60651.69;5091778;28;20434;-71
2022/03/21 00:27:55;;;;;;;19.60;10.17;;;;;;;-0.77;100.00;60729.47;5091761;28;20450;-70
2022/03/21 00:30:23;;;;;;;25.33;9.60;;;;;;;-0.81;100.00;60725.78;5092826;28;20955;-71
2022/03/21 00:32:50;;;;;;;17.70;9.20;;;;;;;-0.72;100.00;60730.28;5094158;28;20449;-71
2022/03/21 00:35:17;;;;;;;19.27;9.20;;;;;;;-0.80;100.00;60721.31;5093751;28;20916;-71
2022/03/21 00:37:47;;;;;;;20.53;8.80;;;;;;;-0.73;100.00;60733.69;5092687;28;20434;-71
2022/03/21 00:40:15;;;;;;;18.13;8.93;;;;;;;-0.87;100.00;60716.91;5092214;28;20547;-71
2022/03/21 00:42:44;;;;;;;15.37;7.67;;;;;;;-0.82;100.00;60722.19;5094746;28;20449;-71
2022/03/21 00:45:14;;;;;;;21.00;9.40;;;;;;;-0.67;100.00;60740.59;5096151;28;20495;-72
2022/03/21 00:47:42;;;;;;;17.57;8.40;;;;;;;-0.81;100.00;60722.72;5096752;28;20800;-71
2022/03/21 00:50:11;;;;;;;19.37;9.00;;;;;;;-1.05;100.00;60700.38;5095978;28;20996;-72
2022/03/21 00:52:43;;;;;;;19.80;9.87;;;;;;;-1.05;100.00;60700.91;5095577;28;20499;-71
2022/03/21 00:55:13;;;;;;;20.10;9.40;;;;;;;-1.03;100.00;60703.03;5095654;28;20452;-71
2022/03/21 00:57:42;;;;;;;19.47;8.73;;;;;;;-1.08;100.00;60690.22;5095632;28;20498;-72
2022/03/21 01:00:13;;;;;;;20.53;9.10;;;;;;;-1.03;100.00;60697.47;5095460;28;20584;-73
2022/03/21 01:02:41;;;;;;;17.73;8.67;;;;;;;-1.21;100.00;60683.44;5095609;28;20461;-71
2022/03/21 01:05:11;;;;;;;21.70;10.07;;;;;;;-1.11;100.00;60689.03;5095318;28;20441;-72
2022/03/21 01:07:39;;;;;;;17.60;8.33;;;;;;;-1.21;100.00;60683.44;5094744;28;20517;-71
2022/03/21 01:10:08;;;;;;;16.63;8.50;;;;;;;-1.11;100.00;60694.56;5095258;28;20493;-72
2022/03/21 01:12:38;;;;;;;18.70;7.70;;;;;;;-1.13;100.00;60692.44;5095374;28;20445;-70
2022/03/21 01:15:07;;;;;;;19.67;8.87;;;;;;;-1.69;100.00;60638.19;5095257;28;20438;-71
2022/03/21 01:17:34;;;;;;;20.23;9.13;;;;;;;-1.86;100.00;60615.22;5094978;28;20448;-72
2022/03/21 01:20:02;;;;;;;22.40;8.83;;;;;;;-1.55;100.00;60648.00;5094873;28;20477;-72
2022/03/21 01:22:28;;;;;;;22.00;9.97;;;;;;;-1.50;100.00;60648.28;5094951;28;20791;-72
2022/03/21 01:24:55;;;;;;;18.37;10.10;;;;;;;-1.95;100.00;60603.72;5094767;28;21003;-72
2022/03/21 01:27:22;;;;;;;23.03;9.63;;;;;;;-1.78;100.00;60623.69;5095417;28;20438;-71
2022/03/21 01:29:51;;;;;;;22.40;10.40;;;;;;;-1.76;100.00;60623.28;5094729;28;20475;-71
2022/03/21 01:32:18;;;;;;;26.10;9.90;;;;;;;-1.90;100.00;60610.97;5094713;28;20438;-72
2022/03/21 01:34:45;;;;;;;22.43;9.43;;;;;;;-1.82;100.00;60619.97;5094933;28;20477;-72
2022/03/21 01:37:12;;;;;;;21.03;10.07;;;;;;;-1.84;100.00;60617.31;5094790;28;20541;-72
2022/03/21 01:39:39;;;;;;;24.83;10.37;;;;;;;-1.76;100.00;60625.78;5094336;28;20541;-71
2022/03/21 01:42:07;;;;;;;22.90;10.40;;;;;;;-1.78;100.00;60616.19;5094520;28;20454;-71
2022/03/21 01:44:34;;;;;;;18.60;8.80;;;;;;;-1.64;100.00;60638.47;5094621;28;20442;-71
2022/03/21 01:47:03;;;;;;;22.93;10.37;;;;;;;-1.66;100.00;60633.88;5094452;28;20445;-71
2022/03/21 01:49:30;;;;;;;23.97;10.67;;;;;;;-1.71;100.00;60631.09;5076266;28;20425;-72
2022/03/21 01:51:57;;;;;;;20.80;9.93;;;;;;;-2.20;100.00;60582.31;5094290;28;20449;-72
2022/03/21 01:57:08;;;;;;;23.63;10.47;;;;;;;-1.86;100.00;60610.22;5094360;28;20943;-71
2022/03/21 01:59:36;;;;;;;24.63;11.13;;;;;;;-2.03;100.00;60597.25;5094213;28;20527;-70
2022/03/21 02:02:06;;;;;;;21.07;10.67;;;;;;;-2.05;100.00;60590.16;5094030;28;20792;-72
2022/03/21 02:04:33;;;;;;;26.70;10.53;;;;;;;-2.09;100.00;60586.44;5076425;28;20507;-71
2022/03/21 02:07:02;;;;;;;25.00;9.87;;;;;;;-2.23;100.00;60571.63;5094036;28;20932;-70
2022/03/21 02:09:30;;;;;;;24.90;11.07;;;;;;;-2.11;100.00;60588.78;5094222;28;20549;-72
2022/03/21 02:11:58;;;;;;;22.63;10.80;;;;;;;-2.17;100.00;60582.47;5093607;28;20499;-71
2022/03/21 02:14:25;;;;;;;20.93;8.40;;;;;;;-2.08;100.00;60591.97;5093983;28;20544;-72
2022/03/21 02:16:53;;;;;;;19.43;9.30;;;;;;;-2.07;100.00;60593.53;5093876;28;20442;-72
2022/03/21 02:19:29;;;;;;;22.13;7.63;;;;;;;-2.19;100.00;60580.84;5094320;28;20473;-71
2022/03/21 02:22:09;;;;;;;15.73;8.23;;;;;;;-2.07;100.00;60593.53;5093982;28;20429;-71
2022/03/21 02:24:49;;;;;;;20.03;7.93;;;;;;;-2.03;100.00;60592.25;5094247;28;20437;-71
2022/03/21 02:27:19;;;;;;;18.17;7.73;;;;;;;-2.13;100.00;60586.69;5093994;28;20430;-72
2022/03/21 02:29:50;;;;;;;15.13;7.77;;;;;;;-2.15;100.00;60584.56;5094014;28;20490;-71
2022/03/21 02:32:16;;;;;;;25.50;11.27;;;;;;;-2.22;100.00;60577.16;5093818;28;20454;-72
2022/03/21 02:34:46;;;;;;;36.87;14.07;;;;;;;-3.34;100.00;60454.97;5093474;28;20835;-72
2022/03/21 02:37:18;;;;;;;38.03;14.80;;;;;;;-2.57;100.00;60533.75;5093843;28;20495;-71
2022/03/21 02:39:45;;;;;;;24.23;11.00;;;;;;;-3.36;100.00;60457.81;5093941;28;20481;-71
2022/03/21 02:42:13;;;;;;;28.17;11.93;;;;;;;-2.73;100.00;60524.34;5093217;28;20940;-71
2022/03/21 02:44:41;;;;;;;36.00;13.87;;;;;;;-2.70;100.00;60525.03;5093201;28;20443;-70
2022/03/21 02:47:10;;;;;;;29.40;12.87;;;;;;;-2.86;100.00;60505.09;5093206;28;20936;-71
2022/03/21 02:49:37;;;;;;;41.27;17.03;;;;;;;-2.95;100.00;60495.59;5092946;28;20514;-71
2022/03/21 02:52:07;;;;;;;44.77;16.80;;;;;;;-3.22;100.00;60467.63;5092923;28;20518;-72
2022/03/21 02:54:34;;;;;;;32.40;13.37;;;;;;;-3.31;100.00;60455.63;5093922;28;20884;-71
2022/03/21 02:57:02;;;;;;;28.63;11.77;;;;;;;-3.19;100.00;60475.75;5093384;28;20433;-72
2022/03/21 02:59:29;;;;;;;34.53;12.57;;;;;;;-3.25;100.00;60469.44;5093102;28;20894;-72
2022/03/21 03:01:57;;;;;;;28.17;13.03;;;;;;;-3.24;100.00;60465.50;5092783;28;20507;-72
2022/03/21 03:04:25;;;;;;;32.53;14.33;;;;;;;-3.35;100.00;60458.34;5092961;28;20449;-71
2022/03/21 03:06:52;;;;;;;39.57;14.70;;;;;;;-3.21;100.00;60468.66;5092893;28;20449;-71
2022/03/21 03:09:19;;;;;;;36.70;14.70;;;;;;;-3.49;100.00;60439.13;5074961;28;20437;-72
2022/03/21 03:11:45;;;;;;;33.93;13.30;;;;;;;-3.38;100.00;60453.22;5092695;28;20502;-71
2022/03/21 03:14:12;;;;;;;29.00;13.73;;;;;;;-3.42;100.00;60449.00;5092861;28;20442;-71
2022/03/21 03:16:40;;;;;;;35.40;14.77;;;;;;;-3.45;100.00;60451.34;5074732;28;20444;-70
2022/03/21 03:19:08;;;;;;;28.07;13.50;;;;;;;-3.49;100.00;60444.09;5092694;28;20463;-72
2022/03/21 03:21:37;;;;;;;30.33;13.00;;;;;;;-3.38;100.00;60455.72;5074719;28;20442;-71
2022/03/21 03:24:06;;;;;;;29.87;12.70;;;;;;;-3.14;100.00;60476.06;5092492;28;20445;-71
2022/03/21 03:26:33;;;;;;;33.87;13.10;;;;;;;-3.48;100.00;60442.66;5092578;28;20940;-71
2022/03/21 03:28:59;;;;;;;37.47;13.77;;;;;;;-3.36;100.00;60457.81;5091981;28;20454;-72
2022/03/21 03:31:27;;;;;;;42.20;14.17;;;;;;;-3.45;100.00;60448.31;5092415;28;20438;-71
2022/03/21 03:33:54;;;;;;;24.20;11.60;;;;;;;-4.25;100.00;60366.94;5092430;28;20437;-71
2022/03/21 03:36:23;;;;;;;31.13;12.67;;;;;;;-3.48;100.00;60442.66;5074154;28;20478;-71
2022/03/21 03:38:51;;;;;;;33.83;11.73;;;;;;;-3.56;100.00;60441.69;5092160;28;20956;-73
2022/03/21 03:41:19;;;;;;;25.07;11.50;;;;;;;-3.56;100.00;60434.75;5092304;28;20485;-71
2022/03/21 03:43:47;;;;;;;24.60;10.63;;;;;;;-3.23;100.00;60468.50;5092308;28;20499;-70
2022/03/21 03:46:16;;;;;;;22.67;9.90;;;;;;;-3.19;100.00;60475.75;5092128;28;20495;-70
2022/03/21 03:48:42;;;;;;;22.67;11.07;;;;;;;-3.09;100.00;60488.81;5092110;28;20449;-71
2022/03/21 03:51:09;;;;;;;24.13;12.00;;;;;;;-3.15;100.00;60479.97;5092184;28;20199;-71
2022/03/21 03:53:39;;;;;;;31.33;11.83;;;;;;;-3.02;100.00;60493.72;5092598;28;20593;-73
2022/03/21 03:56:07;;;;;;;29.50;11.47;;;;;;;-3.07;100.00;60488.44;5092067;28;21024;-71
2022/03/21 03:58:34;;;;;;;23.27;10.80;;;;;;;-3.01;100.00;60494.75;5092590;28;20495;-72
2022/03/21 04:01:02;;;;;;;23.57;10.57;;;;;;;-2.85;100.00;60511.66;5092592;28;20538;-72
2022/03/21 04:03:47;;;;;;;35.53;11.07;;;;;;;-2.87;100.00;60509.00;5093347;28;20540;-70
2022/03/21 04:06:15;;;;;;;23.80;10.83;;;;;;;-2.70;100.00;60527.50;5092816;28;20966;-71
2022/03/21 04:08:48;;;;;;;28.63;10.60;;;;;;;-2.61;100.00;60534.53;5092761;28;20498;-71
2022/03/21 04:11:15;;;;;;;23.10;10.13;;;;;;;-2.50;100.00;60548.09;5092415;28;20851;-71
2022/03/21 04:13:43;;;;;;;22.67;10.17;;;;;;;-2.40;100.00;60553.16;5092632;28;20936;-71
2022/03/21 04:16:10;;;;;;;28.60;11.97;;;;;;;-2.70;100.00;60525.03;5093143;28;20495;-72
2022/03/21 04:18:38;;;;;;;38.93;15.53;;;;;;;-3.37;100.00;60461.75;5097034;28;20438;-71
2022/03/21 04:21:06;;;;;;;37.73;15.10;;;;;;;-2.77;100.00;60517.63;5078516;28;20525;-70
2022/03/21 04:23:33;;;;;;;40.07;15.27;;;;;;;-2.61;100.00;60537.00;5104584;28;20441;-71
2022/03/21 04:26:01;;;;;;;53.33;15.90;;;;;;;-2.84;100.00;60512.72;5104391;28;20434;-73
2022/03/21 04:28:28;;;;;;;66.90;16.47;;;;;;;-2.88;100.00;60508.50;5096513;28;20445;-71
2022/03/21 04:30:55;;;;;;;50.77;20.23;;;;;;;-3.17;100.00;60472.88;5095699;28;20437;-71
2022/03/21 04:33:22;;;;;;;51.63;21.07;;;;;;;-3.15;100.00;60477.50;5095756;28;20446;-71
2022/03/21 04:35:49;;;;;;;46.40;19.10;;;;;;;-3.27;100.00;60464.81;5095849;28;21064;-72
2022/03/21 04:38:17;;;;;;;87.93;29.70;;;;;;;-3.38;100.00;60455.19;5095747;28;21025;-71
2022/03/21 04:40:46;;;;;;;55.83;25.53;;;;;;;-3.45;100.00;60445.81;5095598;28;20485;-71
2022/03/21 04:43:15;;;;;;;47.30;19.03;;;;;;;-3.20;100.00;60472.22;5096392;28;20441;-70
2022/03/21 04:45:43;;;;;;;56.37;22.93;;;;;;;-3.24;100.00;60470.50;5095773;28;20495;-71
2022/03/21 04:48:10;;;;;;;66.20;23.63;;;;;;;-3.25;100.00;60469.44;5095778;28;20434;-71
2022/03/21 04:50:37;;;;;;;57.20;23.23;;;;;;;-3.12;100.00;60482.63;5095774;28;21023;-71
2022/03/21 04:53:05;;;;;;;60.40;21.43;;;;;;;-3.00;100.00;60495.81;5095420;28;20565;-72
2022/03/21 04:55:32;;;;;;;50.73;20.57;;;;;;;-3.38;100.00;60455.72;5095818;28;20492;-71
2022/03/21 04:57:59;;;;;;;61.53;21.43;;;;;;;-3.81;100.00;60410.34;5095363;28;20927;-71
2022/03/21 05:00:28;;;;;;;54.00;20.70;;;;;;;-3.16;100.00;60476.44;5094777;28;20480;-71
2022/03/21 05:02:54;;;;;;;57.60;22.67;;;;;;;-2.98;100.00;60502.91;5095148;28;20461;-71
2022/03/21 05:05:21;;;;;;;44.07;19.87;;;;;;;-2.91;100.00;60505.31;5095108;28;20812;-72
2022/03/21 05:07:52;;;;;;;54.60;22.10;;;;;;;-2.86;100.00;60505.63;5095070;28;20956;-72
2022/03/21 05:10:19;;;;;;;48.20;22.53;;;;;;;-2.86;100.00;60510.63;5095098;28;20525;-72
2022/03/21 05:12:46;;;;;;;56.47;23.47;;;;;;;-2.94;100.00;60504.66;5095413;28;20940;-71
2022/03/21 05:15:13;;;;;;;54.40;22.47;;;;;;;-2.68;100.00;60524.09;5094974;28;20438;-72
2022/03/21 05:17:41;;;;;;;53.50;21.37;;;;;;;-2.45;100.00;60550.38;5095022;28;20464;-71
2022/03/21 05:20:12;;;;;;;49.60;21.83;;;;;;;-2.65;100.00;60527.81;5095098;28;20511;-71
2022/03/21 05:22:38;;;;;;;62.70;22.00;;;;;;;-2.08;100.00;60587.50;5094705;28;20441;-71
2022/03/21 05:36:04;;;;;;;83.77;24.70;;;;;;;-0.81;100.00;60725.22;5094795;28;20579;-70
2022/03/21 05:38:32;;;;;;;59.00;18.93;;;;;;;-0.56;100.00;60746.72;5094603;28;20446;-70
2022/03/21 05:41:01;;;;;;;62.17;18.50;;;;;;;-1.00;100.00;60706.19;5094545;28;20477;-71
2022/03/21 05:43:29;;;;;;;72.13;20.40;;;;;;;0.07;100.00;60810.91;5094710;28;20839;-71
2022/03/21 05:45:59;;;;;;;46.53;16.60;;;;;;;0.05;100.00;60816.31;5094259;28;20430;-71
2022/03/21 05:51:13;;;;;;;58.50;18.80;;;;;;;0.68;100.00;60878.06;5094597;28;20535;-71
2022/03/21 05:53:41;;;;;;;39.73;15.07;;;;;;;0.90;100.00;60900.88;5076713;28;20429;-70
2022/03/21 05:56:08;;;;;;;48.40;16.83;;;;;;;1.09;100.00;60925.50;5094383;28;20523;-71
2022/03/21 05:58:35;;;;;;;40.17;14.97;;;;;;;1.26;100.00;60943.53;5093735;28;20510;-71
2022/03/21 06:01:02;;;;;;;35.33;13.43;;;;;;;1.75;100.00;60995.53;5094249;28;20480;-71
2022/03/21 06:03:31;;;;;;;30.37;12.77;;;;;;;1.77;100.00;60997.66;5094211;28;20518;-72
2022/03/21 06:05:59;;;;;;;56.10;16.17;;;;;;;2.04;100.00;61026.31;5094135;28;20445;-71
2022/03/21 06:08:26;;;;;;;31.27;16.33;;;;;;;2.48;96.47;61070.00;5093910;28;20507;-71
2022/03/21 06:11:03;;;;;;;32.83;14.30;;;;;;;2.94;93.52;61118.34;5094672;28;20441;-72
2022/03/21 06:13:31;;;;;;;44.43;17.23;;;;;;;3.32;88.08;61158.75;5094068;28;20438;-71
2022/03/21 06:16:03;;;;;;;30.03;14.17;;;;;;;3.60;82.91;61188.53;5094084;28;20445;-72
2022/03/21 06:18:34;;;;;;;35.70;14.33;;;;;;;3.74;79.54;61208.44;5093923;28;20520;-71
2022/03/21 06:21:03;;;;;;;30.77;12.77;;;;;;;4.15;74.26;61244.50;5094617;28;20847;-72
2022/03/21 06:23:31;;;;;;;24.53;11.90;;;;;;;4.39;71.39;61274.03;5093734;28;20426;-70
2022/03/21 06:25:58;;;;;;;25.30;10.60;;;;;;;4.61;68.16;61294.94;5094148;28;20464;-72
2022/03/21 06:28:26;;;;;;;25.83;10.30;;;;;;;4.20;66.43;61249.84;5093833;28;20967;-71
2022/03/21 06:30:53;;;;;;;16.10;8.93;;;;;;;4.85;63.76;61328.56;5093573;28;20464;-71
2022/03/21 06:33:22;;;;;;;22.00;10.00;;;;;;;4.86;62.08;61314.50;5093778;28;20488;-71
2022/03/21 06:35:51;;;;;;;17.53;9.10;;;;;;;5.18;60.45;61357.63;5093599;28;20473;-71
2022/03/21 06:38:18;;;;;;;15.03;8.33;;;;;;;5.32;59.56;61368.00;5093605;28;20434;-71
2022/03/21 06:40:45;;;;;;;24.77;10.77;;;;;;;5.53;57.57;61392.94;5092746;28;20527;-72
2022/03/21 06:43:14;;;;;;;28.60;10.93;;;;;;;5.63;57.41;61406.13;5093347;28;20433;-71
2022/03/21 06:45:41;;;;;;;22.43;9.80;;;;;;;5.60;56.47;61397.31;5094160;28;20539;-72
2022/03/21 06:48:09;;;;;;;32.53;10.40;;;;;;;5.81;56.28;61425.31;5093126;28;20454;-71
2022/03/21 06:50:37;;;;;;;19.47;10.10;;;;;;;5.69;56.50;61406.91;5093438;28;20449;-71
2022/03/21 06:53:06;;;;;;;18.67;9.50;;;;;;;5.37;56.00;61373.34;5093336;28;20510;-72
2022/03/21 06:55:33;;;;;;;21.37;9.63;;;;;;;5.63;57.92;61411.16;5093067;28;20952;-73
2022/03/21 06:58:01;;;;;;;18.37;9.20;;;;;;;5.94;55.99;61436.66;5092941;28;20896;-72
2022/03/21 07:00:28;;;;;;;22.63;10.90;;;;;;;5.92;56.18;61431.97;5092791;28;20530;-71
2022/03/21 07:02:55;;;;;;;17.90;10.73;;;;;;;5.59;56.53;61399.31;5092832;28;20465;-71
2022/03/21 07:05:22;;;;;;;23.23;12.23;;;;;;;5.84;58.66;61423.47;5093339;28;20819;-72
2022/03/21 07:07:52;;;;;;;27.70;12.17;;;;;;;6.20;59.30;61463.31;5092840;28;20437;-70
2022/03/21 07:10:20;;;;;;;21.27;10.97;;;;;;;6.18;56.82;61461.19;5093031;28;20824;-72
2022/03/21 07:12:47;;;;;;;27.13;11.33;;;;;;;6.35;56.18;61476.78;5092773;28;21115;-71
2022/03/21 07:15:15;;;;;;;19.20;11.27;;;;;;;6.76;55.10;61520.53;5092757;28;20437;-71
2022/03/21 07:17:43;;;;;;;23.13;12.00;;;;;;;6.81;53.95;61528.38;5092824;28;20437;-71
2022/03/21 07:20:11;;;;;;;16.17;10.20;;;;;;;6.63;53.78;61509.16;5092659;28;20441;-71
2022/03/21 07:22:39;;;;;;;15.17;9.63;;;;;;;6.72;51.76;61518.78;5074603;28;20449;-72
2022/03/21 07:25:07;;;;;;;23.57;10.03;;;;;;;6.83;52.48;61533.03;5092510;28;20469;-71
2022/03/21 07:27:36;;;;;;;20.10;10.63;;;;;;;6.75;51.58;61519.44;5092825;28;20487;-71
2022/03/21 07:30:03;;;;;;;21.87;10.20;;;;;;;6.98;51.00;61546.53;5092389;28;20963;-71
2022/03/21 07:32:30;;;;;;;20.40;10.17;;;;;;;6.95;50.30;61545.84;5092563;28;20880;-70
2022/03/21 07:34:58;;;;;;;19.97;10.23;;;;;;;7.05;49.46;61554.00;5092158;28;20980;-71
2022/03/21 07:37:24;;;;;;;18.43;10.80;;;;;;;7.19;49.85;61571.47;5092355;28;20955;-72
2022/03/21 07:39:51;;;;;;;17.30;9.90;;;;;;;7.18;48.63;61565.34;5093078;28;20507;-71
2022/03/21 07:42:19;;;;;;;17.63;9.30;;;;;;;7.50;48.60;61599.50;5092027;28;21082;-71
2022/03/21 07:47:32;;;;;;;16.53;9.50;;;;;;;8.33;47.25;61689.66;5092647;28;20478;-72
2022/03/21 07:49:58;;;;;;;22.73;11.70;;;;;;;8.44;45.53;61699.41;5092096;28;20445;-72
2022/03/21 07:52:26;;;;;;;16.90;8.93;;;;;;;8.44;45.31;61703.94;5090857;28;20964;-72
2022/03/21 07:54:54;;;;;;;17.87;9.30;;;;;;;8.46;44.69;61703.56;5092779;28;20823;-72
2022/03/21 07:57:21;;;;;;;20.00;10.43;;;;;;;8.51;45.17;61706.38;5091588;28;20453;-72
2022/03/21 07:59:50;;;;;;;17.20;10.00;;;;;;;8.35;45.52;61691.81;5091808;28;20966;-72
2022/03/21 08:02:19;;;;;;;19.83;10.30;;;;;;;8.53;46.16;61713.59;5091935;28;20473;-71
2022/03/21 08:04:47;;;;;;;20.87;9.80;;;;;;;8.25;45.18;61676.03;5091906;28;20442;-72
2022/03/21 08:07:14;;;;;;;15.90;10.10;;;;;;;8.61;43.46;61717.06;5091921;28;20446;-72
2022/03/21 08:09:41;;;;;;;26.50;11.07;;;;;;;8.73;44.51;61729.34;5092181;28;20437;-72
2022/03/21 08:12:09;;;;;;;21.93;10.37;;;;;;;8.45;45.06;61697.94;5092593;28;20441;-71
2022/03/21 08:14:36;;;;;;;20.77;11.67;;;;;;;8.06;44.83;61660.78;5091512;28;20449;-71
2022/03/21 08:17:04;;;;;;;17.87;10.13;;;;;;;7.62;45.23;61617.41;5092018;28;20541;-72
2022/03/21 08:19:32;;;;;;;16.90;9.90;;;;;;;7.62;46.52;61619.94;5092613;28;20499;-72
2022/03/21 08:22:00;;;;;;;24.67;13.90;;;;;;;8.02;46.14;61654.50;5092207;28;20477;-73
2022/03/21 08:24:28;;;;;;;23.10;10.97;;;;;;;7.82;46.36;61635.16;5092687;28;20882;-71
2022/03/21 08:26:54;;;;;;;20.37;10.80;;;;;;;8.13;45.97;61668.28;5091924;28;20445;-71
2022/03/21 08:29:22;;;;;;;19.13;10.73;;;;;;;7.81;46.93;61634.59;5091851;28;20448;-71
2022/03/21 08:31:48;;;;;;;20.37;11.80;;;;;;;8.46;46.33;61703.56;5091469;28;20453;-71
2022/03/21 08:34:16;;;;;;;23.20;10.97;;;;;;;8.84;46.52;61746.72;5091765;28;20453;-71
2022/03/21 08:36:43;;;;;;;23.03;11.00;;;;;;;9.32;46.06;61795.53;5091751;28;20531;-72
2022/03/21 08:39:10;;;;;;;17.70;10.90;;;;;;;9.35;43.59;61800.75;5091711;28;20437;-71
2022/03/21 08:41:37;;;;;;;20.83;10.40;;;;;;;9.08;44.04;61767.31;5091460;28;20534;-72
2022/03/21 08:44:05;;;;;;;24.57;13.17;;;;;;;9.21;44.32;61786.31;5091264;28;20452;-71
2022/03/21 08:46:32;;;;;;;23.93;12.43;;;;;;;9.41;45.02;61806.63;5091961;28;20816;-72
2022/03/21 08:51:44;;;;;;;44.13;21.53;;;;;;;8.70;44.98;61731.75;5091806;28;20807;-71
2022/03/21 08:54:12;;;;;;;21.90;10.73;;;;;;;8.17;46.02;61670.00;5091280;28;20912;-72
2022/03/21 08:56:39;;;;;;;19.47;10.90;;;;;;;8.26;46.43;61687.25;5091317;28;20446;-72
2022/03/21 08:59:06;;;;;;;22.07;11.00;;;;;;;8.27;47.38;61680.72;5091522;28;20441;-71
2022/03/21 09:01:33;;;;;;;19.70;11.10;;;;;;;8.00;46.95;61657.44;5091199;28;21023;-72
2022/03/21 09:04:01;;;;;;;17.47;10.00;;;;;;;8.35;47.99;61694.34;5094196;28;21049;-71
2022/03/21 09:06:30;;;;;;;15.87;9.17;;;;;;;8.09;46.67;61661.47;5095166;28;20480;-71
2022/03/21 09:08:58;;;;;;;20.47;8.83;;;;;;;7.50;46.56;61599.50;5095087;28;20434;-71
2022/03/21 09:11:27;;;;;;;15.43;9.00;;;;;;;7.12;46.86;61558.94;5094743;28;20528;-71
2022/03/21 09:13:54;;;;;;;16.93;9.20;;;;;;;6.61;47.86;61510.09;5095245;28;20450;-70
2022/03/21 09:16:21;;;;;;;21.57;9.13;;;;;;;6.56;49.08;61499.19;5094913;28;20433;-71
2022/03/21 09:18:48;;;;;;;19.83;10.23;;;;;;;6.37;50.02;61484.50;5094840;28;20433;-72
2022/03/21 09:21:15;;;;;;;17.53;8.77;;;;;;;5.66;50.25;61409.31;5094864;28;20477;-73
2022/03/21 09:23:42;;;;;;;23.63;9.07;;;;;;;5.77;51.57;61420.50;5094724;28;20514;-71
2022/03/21 09:26:12;;;;;;;23.53;8.73;;;;;;;5.55;53.11;61384.97;5094795;28;20441;-71
2022/03/21 09:28:40;;;;;;;15.93;8.23;;;;;;;5.17;53.78;61356.56;5094671;28;20507;-72
2022/03/21 09:31:07;;;;;;;23.00;8.40;;;;;;;5.43;54.48;61382.28;5095160;28;20532;-71
2022/03/21 09:33:36;;;;;;;17.50;8.53;;;;;;;5.43;53.89;61379.75;5094056;28;20493;-71
2022/03/21 09:36:03;;;;;;;21.40;9.30;;;;;;;5.53;53.87;61392.94;5094767;28;20811;-71
2022/03/21 09:38:30;;;;;;;17.73;9.33;;;;;;;6.53;52.69;61501.03;5094514;28;20433;-71
2022/03/21 09:40:58;;;;;;;24.40;8.40;;;;;;;7.05;50.99;61555.97;5094564;28;20437;-72
2022/03/21 09:43:26;;;;;;;19.67;8.43;;;;;;;6.53;49.81;61495.97;5094249;28;20442;-71
2022/03/21 09:45:57;;;;;;;22.50;8.70;;;;;;;7.19;48.36;61566.41;5094105;28;20863;-71
2022/03/21 09:48:26;;;;;;;14.63;8.23;;;;;;;7.88;46.88;61639.56;5095200;28;20815;-73
2022/03/21 09:50:56;;;;;;;17.73;8.40;;;;;;;8.16;46.61;61671.47;5093918;28;20854;-72
2022/03/21 09:53:24;;;;;;;18.50;8.17;;;;;;;8.51;46.27;61709.44;5093697;28;20480;-71
2022/03/21 09:55:51;;;;;;;16.87;8.27;;;;;;;8.92;45.04;61750.19;5094045;28;20434;-72
2022/03/21 09:58:20;;;;;;;16.90;8.10;;;;;;;9.10;44.82;61772.00;5094040;28;20514;-72
2022/03/21 10:00:49;;;;;;;15.53;8.40;;;;;;;8.71;44.77;61727.75;5094203;28;20434;-71
2022/03/21 10:03:16;;;;;;;19.43;9.17;;;;;;;9.07;44.51;61766.25;5093838;28;20488;-72
2022/03/21 10:05:44;;;;;;;25.17;8.50;;;;;;;9.09;44.08;61767.84;5093308;28;20812;-71
2022/03/21 10:08:17;;;;;;;14.00;8.27;;;;;;;9.33;43.57;61796.59;5094221;28;20196;-73
2022/03/21 10:10:56;;;;;;;18.47;8.40;;;;;;;8.87;43.02;61749.94;5093874;28;20436;-72
2022/03/21 10:13:24;;;;;;;20.57;7.67;;;;;;;8.82;43.65;61744.03;5093646;28;20483;-71
2022/03/21 10:16:10;;;;;;;16.57;7.40;;;;;;;9.01;44.05;61762.38;5092729;28;20441;-72
2022/03/21 10:18:37;;;;;;;17.20;8.53;;;;;;;9.11;43.09;61770.00;5093938;28;20487;-72
2022/03/21 10:21:11;;;;;;;23.10;8.10;;;;;;;9.38;43.20;61800.88;5093904;28;20793;-71
2022/03/21 10:23:38;;;;;;;17.83;9.00;;;;;;;8.93;42.72;61753.81;5093792;28;20444;-71
2022/03/21 10:26:24;;;;;;;15.43;8.53;;;;;;;9.31;42.65;61797.00;5093567;28;20442;-70
2022/03/21 10:28:53;;;;;;;20.60;8.80;;;;;;;9.75;42.86;61837.94;5093965;28;20448;-71
2022/03/21 10:31:35;;;;;;;14.13;7.90;;;;;;;9.65;42.93;61832.31;5094074;28;20437;-72
2022/03/21 10:34:03;;;;;;;15.90;8.10;;;;;;;8.92;42.74;61752.75;5094234;28;20445;-70
2022/03/21 10:36:30;;;;;;;12.07;7.73;;;;;;;10.24;41.87;61894.97;5093883;28;20879;-70
2022/03/21 10:39:07;;;;;;;13.63;8.53;;;;;;;9.81;42.12;61846.88;5093224;28;20498;-71
2022/03/21 10:41:35;;;;;;;12.80;8.00;;;;;;;10.46;41.32;61915.97;5093046;28;20226;-72
2022/03/21 10:44:03;;;;;;;13.57;8.17;;;;;;;10.47;41.58;61915.03;5093526;28;20322;-72
2022/03/21 10:46:32;;;;;;;15.97;8.37;;;;;;;10.48;41.30;61915.56;5093161;28;20331;-72
2022/03/21 10:49:02;;;;;;;23.57;8.63;;;;;;;10.22;41.10;61888.28;5092753;28;20940;-71
2022/03/21 10:51:47;;;;;;;19.47;8.57;;;;;;;9.48;42.12;61809.03;5092607;28;20264;-72
2022/03/21 10:54:36;;;;;;;15.47;8.23;;;;;;;9.53;42.18;61809.28;5093795;28;20625;-72
2022/03/21 10:57:03;;;;;;;12.57;8.33;;;;;;;10.24;42.33;61894.97;5093040;28;20503;-72
2022/03/21 10:59:30;;;;;;;14.77;8.53;;;;;;;10.29;41.40;61895.75;5092519;28;20514;-71
2022/03/21 11:02:15;;;;;;;14.33;8.43;;;;;;;9.73;41.10;61841.41;5092504;28;20227;-72
2022/03/21 11:04:45;;;;;;;15.17;8.60;;;;;;;9.93;41.38;61859.72;5093254;28;20200;-71
2022/03/21 11:07:13;;;;;;;16.77;8.97;;;;;;;10.11;40.82;61879.03;5092601;28;20528;-72
2022/03/21 11:09:40;;;;;;;17.17;8.93;;;;;;;10.34;40.95;61896.03;5092718;28;20207;-73
2022/03/21 11:12:08;;;;;;;16.97;8.90;;;;;;;10.06;40.86;61876.22;5092589;28;20658;-72
2022/03/21 11:14:39;;;;;;;18.93;8.53;;;;;;;9.35;41.61;61796.19;5092064;28;20637;-72
2022/03/21 11:17:06;;;;;;;17.60;8.77;;;;;;;8.92;42.37;61752.19;5092838;28;20195;-73
2022/03/21 11:19:35;;;;;;;11.93;7.30;;;;;;;9.59;42.76;61823.88;5092600;28;20507;-72
2022/03/21 11:22:03;;;;;;;17.73;7.43;;;;;;;9.93;41.31;61859.72;5092114;28;20480;-71
2022/03/21 11:24:31;;;;;;;15.07;7.90;;;;;;;9.20;41.92;61787.78;5092479;28;20196;-72
2022/03/21 11:27:13;;;;;;;12.03;8.07;;;;;;;8.66;43.39;61724.94;5092601;28;20441;-72
2022/03/21 11:29:52;;;;;;;15.43;7.70;;;;;;;9.18;43.62;61783.09;5092988;28;20438;-71
2022/03/21 11:32:30;;;;;;;21.60;7.90;;;;;;;9.11;44.42;61770.53;5092376;28;20195;-71
2022/03/21 11:35:07;;;;;;;17.50;7.97;;;;;;;9.30;43.96;61792.84;5092528;28;20508;-71
2022/03/21 11:37:36;;;;;;;13.07;7.23;;;;;;;9.54;43.00;61815.97;5092402;28;20437;-71
2022/03/21 11:40:28;;;;;;;11.30;6.67;;;;;;;9.68;41.69;61833.50;5092810;28;20494;-73
2022/03/21 11:42:57;;;;;;;16.33;7.20;;;;;;;9.95;42.34;61856.78;5092442;28;20697;-73
2022/03/21 11:45:26;;;;;;;12.77;7.40;;;;;;;9.77;41.35;61850.25;5092520;28;21013;-72
2022/03/21 11:48:30;;;;;;;15.57;8.03;;;;;;;9.95;42.02;61859.34;5092236;28;20192;-72